Time;durP1;ratioP1;P1;durP2;ratioP2;P2;SDS_P1;SDS_P2;PMS_P1;PMS_P2;Temp;Humidity;BMP_temperature;BMP_pressure;BME280_temperature;BME280_humidity;BME280_pressure;Samples;Min_cycle;Max_cycle;Signal;HPM_P1;HPM_P2
2023/04/24 00:02:17;;;;;;;28.43;15.13;;;;;;;9.59;71.68;100406.82;125282;1086;104439;-79
2023/04/24 00:04:46;;;;;;;30.97;15.73;;;;;;;9.52;71.63;100400.46;125223;1086;104251;-80
2023/04/24 00:07:16;;;;;;;30.40;15.77;;;;;;;9.47;71.39;100393.25;125254;1086;104322;-79
2023/04/24 00:09:45;;;;;;;28.07;15.33;;;;;;;9.47;71.37;100388.02;125370;1086;104351;-80
2023/04/24 00:12:14;;;;;;;27.03;15.77;;;;;;;9.46;71.92;100388.87;125238;1086;104723;-80
2023/04/24 00:14:42;;;;;;;30.47;16.13;;;;;;;9.45;71.67;100392.31;125278;1089;104299;-80
2023/04/24 00:17:11;;;;;;;28.95;15.55;;;;;;;9.41;72.18;100393.02;125182;1086;104219;-80
2023/04/24 00:19:39;;;;;;;28.90;15.40;;;;;;;9.35;72.41;100391.95;125262;1089;104309;-79
2023/04/24 00:22:08;;;;;;;26.40;14.97;;;;;;;9.34;72.62;100391.89;125477;1086;104379;-80
2023/04/24 00:24:36;;;;;;;29.87;15.27;;;;;;;9.31;72.50;100395.27;125362;1090;104373;-80
2023/04/24 00:27:05;;;;;;;28.43;15.83;;;;;;;9.30;72.71;100388.27;125211;1086;104685;-80
2023/04/24 00:29:33;;;;;;;29.27;15.77;;;;;;;9.31;72.78;100376.06;125299;1089;104361;-80
2023/04/24 00:32:02;;;;;;;27.73;15.53;;;;;;;9.28;72.86;100386.41;125423;1086;104216;-80
2023/04/24 00:34:32;;;;;;;29.97;16.93;;;;;;;9.30;72.89;100389.98;125369;1086;104296;-81
2023/04/24 00:37:01;;;;;;;34.87;15.07;;;;;;;9.27;72.49;100384.62;125368;1086;104302;-80
2023/04/24 00:39:29;;;;;;;29.17;15.33;;;;;;;9.25;73.13;100389.80;125308;1086;104354;-80
2023/04/24 00:41:58;;;;;;;29.33;15.33;;;;;;;9.23;73.75;100390.59;125309;1086;104216;-80
2023/04/24 00:44:28;;;;;;;27.63;14.90;;;;;;;9.17;72.86;100389.49;125096;1090;104369;-80
2023/04/24 00:46:57;;;;;;;30.33;16.10;;;;;;;9.16;73.58;100385.11;125111;1086;104302;-79
2023/04/24 00:49:25;;;;;;;27.10;14.73;;;;;;;9.16;73.31;100386.81;125312;1086;104220;-81
2023/04/24 00:51:54;;;;;;;26.23;14.63;;;;;;;9.14;73.04;100381.52;125338;1089;104283;-81
2023/04/24 00:54:22;;;;;;;28.93;15.60;;;;;;;9.12;73.45;100385.81;125333;1086;104238;-81
2023/04/24 00:56:53;;;;;;;26.90;14.90;;;;;;;9.11;73.47;100375.28;125338;1086;104565;-81
2023/04/24 00:59:21;;;;;;;26.77;14.70;;;;;;;9.11;74.02;100383.13;125343;1086;104165;-80
2023/04/24 01:01:50;;;;;;;26.97;14.93;;;;;;;9.10;74.09;100379.63;125270;1086;104297;-80
2023/04/24 01:04:19;;;;;;;27.83;15.20;;;;;;;9.13;73.46;100384.98;125126;1086;104302;-80
2023/04/24 01:06:49;;;;;;;27.53;14.97;;;;;;;9.13;73.74;100382.38;125240;1086;104316;-80
2023/04/24 01:09:18;;;;;;;24.83;13.93;;;;;;;9.12;74.30;100379.69;125409;1086;104359;-79
2023/04/24 01:11:47;;;;;;;26.23;14.60;;;;;;;9.09;74.22;100376.95;125382;1089;104299;-80
2023/04/24 01:14:16;;;;;;;27.90;14.65;;;;;;;9.04;73.67;100386.32;125016;1089;104299;-80
2023/04/24 01:16:44;;;;;;;28.00;14.87;;;;;;;8.99;73.46;100378.28;125320;1086;104296;-80
2023/04/24 01:19:15;;;;;;;28.00;15.13;;;;;;;8.97;74.29;100380.84;125213;1086;104155;-80
2023/04/24 01:21:45;;;;;;;26.93;15.30;;;;;;;8.97;74.42;100382.58;125216;1086;104296;-80
2023/04/24 01:24:14;;;;;;;27.03;15.83;;;;;;;8.96;74.19;100381.70;125248;1086;104370;-80
2023/04/24 01:26:43;;;;;;;31.50;16.50;;;;;;;8.95;74.48;100379.89;125361;1086;104373;-81
2023/04/24 01:29:12;;;;;;;28.93;16.53;;;;;;;8.94;73.99;100377.22;125401;1086;104334;-80
2023/04/24 01:31:41;;;;;;;30.37;16.70;;;;;;;8.93;74.36;100371.10;125227;1086;104389;-79
2023/04/24 01:34:09;;;;;;;28.40;16.30;;;;;;;8.92;74.12;100371.92;125093;1086;104379;-79
2023/04/24 01:36:39;;;;;;;29.10;15.53;;;;;;;8.91;74.26;100361.39;125021;1086;104302;-80
2023/04/24 01:39:07;;;;;;;30.95;16.85;;;;;;;8.87;74.55;100364.73;125059;1086;104293;-80
2023/04/24 01:41:36;;;;;;;29.00;15.93;;;;;;;8.85;74.95;100356.83;125186;1086;104270;-81
2023/04/24 01:44:05;;;;;;;26.23;15.63;;;;;;;8.84;74.61;100360.27;125380;1086;104270;-80
2023/04/24 01:46:35;;;;;;;29.23;16.30;;;;;;;8.81;74.52;100360.14;125414;1089;104554;-80
2023/04/24 01:49:06;;;;;;;27.33;15.73;;;;;;;8.78;74.73;100353.05;125529;1086;104197;-81
2023/04/24 01:51:35;;;;;;;26.43;15.00;;;;;;;8.70;75.14;100351.85;125441;1086;104218;-81
2023/04/24 01:54:05;;;;;;;28.45;16.30;;;;;;;8.69;74.67;100349.17;125563;1086;104277;-81
2023/04/24 01:56:35;;;;;;;29.13;15.53;;;;;;;8.69;74.96;100343.94;125324;1086;104284;-80
2023/04/24 01:59:04;;;;;;;27.97;15.70;;;;;;;8.69;75.50;100343.94;125291;1086;104309;-80
2023/04/24 02:01:36;;;;;;;27.77;16.30;;;;;;;8.69;75.49;100333.48;125351;1086;104271;-80
2023/04/24 02:04:05;;;;;;;28.43;15.53;;;;;;;8.69;74.92;100338.71;125395;1086;104716;-80
2023/04/24 02:06:33;;;;;;;30.80;16.20;;;;;;;8.61;75.30;100328.81;125262;1090;104226;-79
2023/04/24 02:09:03;;;;;;;27.00;15.43;;;;;;;8.67;75.80;100333.42;125521;1086;104235;-80
2023/04/24 02:11:32;;;;;;;28.33;15.83;;;;;;;8.64;75.22;100334.17;125603;1086;104315;-80
2023/04/24 02:14:01;;;;;;;28.13;15.53;;;;;;;8.60;75.43;100340.12;125517;1089;104219;-80
2023/04/24 02:16:32;;;;;;;26.93;15.57;;;;;;;8.57;75.56;100340.00;125454;1086;104373;-80
2023/04/24 02:19:01;;;;;;;26.83;15.10;;;;;;;8.51;75.56;100334.52;125441;1086;104218;-80
2023/04/24 02:21:30;;;;;;;29.80;15.90;;;;;;;8.49;76.23;100338.77;125526;1086;104293;-80
2023/04/24 02:23:59;;;;;;;27.03;15.67;;;;;;;8.48;75.99;100334.39;125168;1086;104162;-80
2023/04/24 02:26:27;;;;;;;26.17;15.30;;;;;;;8.47;75.53;100339.55;125400;1089;104452;-80
2023/04/24 02:28:56;;;;;;;28.30;15.13;;;;;;;8.44;76.09;100333.34;125483;1086;104216;-81
2023/04/24 02:31:24;;;;;;;26.87;15.33;;;;;;;8.45;75.64;100331.65;125455;1086;104247;-81
2023/04/24 02:33:53;;;;;;;28.45;15.60;;;;;;;8.43;75.78;100330.63;125459;1086;104494;-80
2023/04/24 02:36:21;;;;;;;27.70;15.65;;;;;;;8.38;76.11;100332.17;125247;1086;104337;-81
2023/04/24 02:38:50;;;;;;;30.13;15.73;;;;;;;8.34;76.50;100332.90;125326;1086;104238;-80
2023/04/24 02:41:19;;;;;;;28.30;15.77;;;;;;;8.33;75.98;100336.33;125518;1086;104251;-80
2023/04/24 02:43:47;;;;;;;29.53;16.23;;;;;;;8.34;76.65;100339.01;125355;1086;104334;-81
2023/04/24 02:46:16;;;;;;;31.60;15.50;;;;;;;8.34;76.09;100340.74;125298;1086;104286;-80
2023/04/24 02:48:44;;;;;;;28.30;16.25;;;;;;;8.32;76.59;100348.52;125320;1086;104235;-80
2023/04/24 02:51:12;;;;;;;27.25;15.65;;;;;;;8.32;76.41;100340.67;125236;1089;104430;-81
2023/04/24 02:53:41;;;;;;;27.73;14.53;;;;;;;8.32;76.67;100343.30;125502;1086;104366;-81
2023/04/24 02:56:12;;;;;;;27.93;15.77;;;;;;;8.32;76.35;100344.99;125580;1086;104209;-82
2023/04/24 02:58:40;;;;;;;29.07;15.17;;;;;;;8.33;77.02;100338.95;125538;1089;104210;-82
2023/04/24 03:01:09;;;;;;;27.57;14.67;;;;;;;8.30;76.57;100342.31;125467;1089;104389;-81
2023/04/24 03:03:38;;;;;;;26.37;15.53;;;;;;;8.28;76.69;100352.70;125473;1089;104241;-81
2023/04/24 03:06:08;;;;;;;25.97;15.60;;;;;;;8.27;77.20;100342.18;125397;1086;104369;-83
2023/04/24 03:08:38;;;;;;;29.33;15.83;;;;;;;8.25;77.13;100346.46;125830;1086;104234;-82
2023/04/24 03:11:09;;;;;;;29.93;15.63;;;;;;;8.25;77.03;100347.34;125723;1086;104235;-82
2023/04/24 03:13:37;;;;;;;29.50;16.40;;;;;;;8.25;77.08;100349.08;125679;1086;104366;-82
2023/04/24 03:16:06;;;;;;;29.50;16.27;;;;;;;8.26;76.83;100350.88;125592;1086;104713;-81
2023/04/24 03:18:35;;;;;;;28.03;15.03;;;;;;;8.27;77.12;100350.02;125529;1089;104325;-80
2023/04/24 03:21:03;;;;;;;30.20;16.07;;;;;;;8.27;76.96;100350.94;125704;1089;104267;-81
2023/04/24 03:23:32;;;;;;;27.67;15.87;;;;;;;8.27;77.37;100350.02;125644;1089;104383;-81
2023/04/24 03:26:02;;;;;;;26.60;15.53;;;;;;;8.27;77.47;100355.25;125443;1086;104216;-81
2023/04/24 03:28:31;;;;;;;24.23;15.07;;;;;;;8.29;77.14;100358.84;125369;1087;104267;-81
2023/04/24 03:31:02;;;;;;;30.27;15.50;;;;;;;8.30;77.59;100360.61;125482;1085;104345;-81
2023/04/24 03:33:33;;;;;;;28.57;16.13;;;;;;;8.32;77.92;100358.06;125519;1086;104372;-82
2023/04/24 03:36:04;;;;;;;29.63;16.07;;;;;;;8.34;77.49;100359.05;125365;1086;104308;-80
2023/04/24 03:38:39;;;;;;;32.37;15.70;;;;;;;8.35;77.84;100361.72;125325;1086;104398;-80
2023/04/24 03:41:24;;;;;;;29.33;16.03;;;;;;;8.39;77.50;100362.73;125366;1086;104219;-80
2023/04/24 03:44:12;;;;;;;29.63;15.67;;;;;;;8.41;77.66;100363.68;125259;1086;104219;-81
2023/04/24 03:46:42;;;;;;;29.67;15.53;;;;;;;8.43;77.71;100368.19;125541;1089;104424;-80
2023/04/24 03:49:11;;;;;;;28.83;16.13;;;;;;;8.45;78.18;100374.37;125379;1089;104486;-80
2023/04/24 03:51:42;;;;;;;28.87;15.90;;;;;;;8.51;77.61;100373.75;125402;1086;104428;-80
2023/04/24 03:54:17;;;;;;;27.93;15.40;;;;;;;8.53;77.67;100379.92;125484;1089;104426;-80
2023/04/24 03:56:46;;;;;;;30.47;16.77;;;;;;;8.56;78.41;100382.67;125598;1089;104212;-79
2023/04/24 03:59:15;;;;;;;32.70;17.05;;;;;;;8.61;78.25;100378.52;125373;1089;104267;-80
2023/04/24 04:01:46;;;;;;;28.60;16.07;;;;;;;8.65;78.56;100382.17;125360;1086;104411;-81
2023/04/24 04:04:18;;;;;;;30.13;15.73;;;;;;;8.66;77.91;100375.20;125530;1086;104305;-82
2023/04/24 04:06:47;;;;;;;29.33;15.30;;;;;;;8.67;78.54;100379.62;125359;1085;104244;-81
2023/04/24 04:09:16;;;;;;;26.33;15.40;;;;;;;8.67;78.09;100377.00;125516;1089;104334;-81
2023/04/24 04:11:45;;;;;;;27.20;15.13;;;;;;;8.73;78.88;100379.87;125574;1086;104297;-81
2023/04/24 04:14:14;;;;;;;29.43;15.80;;;;;;;8.79;78.40;100378.39;125475;1087;104310;-82
2023/04/24 04:16:44;;;;;;;29.50;16.03;;;;;;;8.86;78.99;100379.52;125251;1086;104374;-81
2023/04/24 04:19:13;;;;;;;26.37;15.73;;;;;;;8.93;78.42;100376.34;125286;1086;104353;-81
2023/04/24 04:21:41;;;;;;;26.17;14.30;;;;;;;8.98;78.74;100379.14;125324;1089;104462;-81
2023/04/24 04:24:14;;;;;;;26.37;14.80;;;;;;;9.04;78.93;100381.09;125384;1086;104295;-81
2023/04/24 04:26:46;;;;;;;25.00;13.67;;;;;;;9.10;78.90;100376.09;125409;1086;104238;-81
2023/04/24 04:29:22;;;;;;;25.23;13.50;;;;;;;9.15;78.55;100382.43;125326;1090;104216;-80
2023/04/24 04:31:52;;;;;;;23.50;13.63;;;;;;;9.22;78.62;100381.82;125429;1086;104698;-79
2023/04/24 04:34:20;;;;;;;22.93;12.67;;;;;;;9.30;78.35;100375.18;125250;1086;104358;-81
2023/04/24 04:36:50;;;;;;;23.23;12.43;;;;;;;9.38;78.89;100375.48;125309;1086;104361;-80
2023/04/24 04:39:38;;;;;;;24.43;12.50;;;;;;;9.47;79.15;100370.59;125353;1087;104216;-80
2023/04/24 04:42:11;;;;;;;22.03;12.17;;;;;;;9.56;79.13;100372.64;125257;1089;104312;-80
2023/04/24 04:44:44;;;;;;;23.70;12.40;;;;;;;9.65;78.48;100372.11;125346;1086;104303;-80
2023/04/24 04:47:18;;;;;;;22.53;11.57;;;;;;;9.74;79.05;100375.08;125243;1086;104305;-80
2023/04/24 04:49:47;;;;;;;20.83;11.07;;;;;;;9.81;78.71;100384.05;125207;1086;104373;-80
2023/04/24 04:52:24;;;;;;;21.00;11.23;;;;;;;9.86;79.10;100382.48;125349;1089;104692;-80
2023/04/24 04:54:55;;;;;;;;;;;;;;;9.89;78.50;100379.97;125390;1086;104254;-81
2023/04/24 04:57:24;;;;;;;22.77;11.13;;;;;;;9.96;78.59;100381.98;125320;1089;104290;-80
2023/04/24 04:59:53;;;;;;;21.60;10.30;;;;;;;10.05;78.37;100381.41;125420;1086;104267;-81
2023/04/24 05:02:30;;;;;;;19.15;10.55;;;;;;;10.13;78.93;100371.19;125531;1086;104350;-81
2023/04/24 05:04:58;;;;;;;19.47;9.30;;;;;;;10.20;78.64;100367.96;125412;1089;104270;-81
2023/04/24 05:07:27;;;;;;;17.53;9.20;;;;;;;10.28;78.57;100374.36;126082;1086;104270;-81
2023/04/24 05:09:56;;;;;;;19.30;9.60;;;;;;;10.35;78.43;100370.27;125613;1086;104347;-81
2023/04/24 05:12:25;;;;;;;17.33;9.23;;;;;;;10.41;78.45;100366.12;125495;1089;104328;-82
2023/04/24 05:14:54;;;;;;;19.20;9.30;;;;;;;10.49;78.02;100369.00;125551;1086;104220;-83
2023/04/24 05:17:23;;;;;;;20.50;8.53;;;;;;;10.57;78.52;100366.64;125684;1089;104371;-82
2023/04/24 05:19:52;;;;;;;15.30;8.27;;;;;;;10.61;78.09;100372.05;125622;1089;104324;-81
2023/04/24 05:22:21;;;;;;;16.77;8.67;;;;;;;10.70;78.71;100360.94;125557;1086;104327;-83
2023/04/24 05:24:53;;;;;;;15.90;8.30;;;;;;;10.79;78.00;100374.36;125469;1089;104803;-83
2023/04/24 05:27:37;;;;;;;19.03;9.13;;;;;;;10.89;78.21;100367.70;125540;1089;104260;-83
2023/04/24 05:30:10;;;;;;;17.57;8.60;;;;;;;10.98;78.20;100359.21;125392;1089;104357;-81
2023/04/24 05:32:38;;;;;;;18.90;9.27;;;;;;;11.05;78.14;100361.20;125419;1089;104336;-82
2023/04/24 05:35:08;;;;;;;22.33;9.40;;;;;;;11.13;78.25;100362.31;125668;1089;104226;-83
2023/04/24 05:37:38;;;;;;;19.53;9.53;;;;;;;11.22;78.17;100353.84;125767;1087;104315;-83
2023/04/24 05:40:09;;;;;;;15.93;8.93;;;;;;;11.30;78.18;100349.70;126410;1089;104228;-83
2023/04/24 05:42:37;;;;;;;19.10;9.80;;;;;;;11.38;77.81;100357.83;125624;1089;118944;-82
2023/04/24 05:45:09;;;;;;;21.63;9.53;;;;;;;11.45;77.79;100353.62;125559;1085;104388;-84
2023/04/24 05:47:37;;;;;;;20.33;10.47;;;;;;;11.49;77.52;100355.52;125682;1089;104305;-83
2023/04/24 05:50:08;;;;;;;20.40;10.80;;;;;;;11.55;77.48;100347.81;125530;1086;104204;-84
2023/04/24 05:52:36;;;;;;;22.63;11.13;;;;;;;11.62;76.96;100346.25;125833;1086;104207;-85
2023/04/24 05:55:09;;;;;;;20.27;10.70;;;;;;;11.68;77.51;100343.80;125599;1089;104294;-85
2023/04/24 05:57:40;;;;;;;22.33;11.30;;;;;;;11.76;77.30;100342.27;125655;1089;104298;-85
2023/04/24 06:00:11;;;;;;;21.60;10.93;;;;;;;11.81;77.32;100342.40;125588;1089;104814;-83
2023/04/24 06:02:46;;;;;;;25.70;11.75;;;;;;;11.84;77.09;100338.14;125749;1089;104318;-81
2023/04/24 06:05:15;;;;;;;21.47;11.30;;;;;;;11.87;76.94;100338.23;125674;1086;104375;-84
2023/04/24 06:07:43;;;;;;;19.60;10.63;;;;;;;11.97;77.42;100338.52;125490;1086;104858;-85
2023/04/24 06:10:12;;;;;;;20.07;10.80;;;;;;;12.01;77.10;100337.73;125497;1086;104284;-84
2023/04/24 06:12:43;;;;;;;21.00;11.07;;;;;;;12.07;77.06;100335.27;125639;1090;104277;-84
2023/04/24 06:15:19;;;;;;;18.77;10.27;;;;;;;12.14;77.37;100344.20;125889;1089;104315;-83
2023/04/24 06:17:58;;;;;;;19.63;9.50;;;;;;;12.20;76.75;100342.65;125753;1086;104283;-81
2023/04/24 06:20:27;;;;;;;20.13;10.07;;;;;;;12.26;76.90;100341.02;125897;1086;104300;-85
2023/04/24 06:22:56;;;;;;;18.73;10.30;;;;;;;12.36;76.43;100348.31;125649;1086;104215;-84
2023/04/24 06:25:26;;;;;;;18.90;9.63;;;;;;;12.46;76.84;100346.80;125805;1086;104241;-81
2023/04/24 06:27:54;;;;;;;18.67;9.87;;;;;;;12.57;76.40;100340.05;125553;1086;104241;-80
2023/04/24 06:30:23;;;;;;;18.93;9.20;;;;;;;12.75;76.74;100344.91;125439;1085;104163;-80
2023/04/24 06:32:53;;;;;;;18.30;9.20;;;;;;;12.86;76.47;100338.14;125622;1089;104312;-84
2023/04/24 06:35:21;;;;;;;16.73;8.63;;;;;;;13.00;76.67;100346.38;125514;1086;104267;-82
2023/04/24 06:37:50;;;;;;;18.30;7.97;;;;;;;13.18;76.50;100337.09;125780;1086;104290;-82
2023/04/24 06:40:18;;;;;;;16.80;7.70;;;;;;;13.37;76.10;100334.06;125782;1089;104366;-82
2023/04/24 06:42:47;;;;;;;13.80;7.60;;;;;;;13.53;76.47;100342.30;125782;1086;104219;-83
2023/04/24 06:45:16;;;;;;;14.43;7.83;;;;;;;13.70;76.07;100339.98;126309;1086;104158;-84
2023/04/24 06:47:45;;;;;;;16.10;8.30;;;;;;;13.82;75.86;100335.87;125718;1086;104261;-83
2023/04/24 06:50:13;;;;;;;15.37;8.13;;;;;;;13.97;75.22;100337.02;125606;1086;104697;-83
2023/04/24 06:52:42;;;;;;;13.80;6.90;;;;;;;14.13;74.86;100340.83;125545;1086;104168;-84
2023/04/24 06:55:11;;;;;;;12.03;6.80;;;;;;;14.25;74.31;100332.27;125620;1086;104156;-83
2023/04/24 06:57:40;;;;;;;12.33;6.73;;;;;;;14.44;75.10;100328.19;125497;1085;104282;-82
2023/04/24 07:00:11;;;;;;;14.33;6.97;;;;;;;14.59;75.45;100328.45;125364;1086;104385;-82
2023/04/24 07:02:39;;;;;;;11.00;6.17;;;;;;;14.77;74.51;100327.88;125566;1086;104337;-83
2023/04/24 07:05:08;;;;;;;8.63;5.27;;;;;;;14.97;74.31;100328.19;125495;1086;104228;-82
2023/04/24 07:07:38;;;;;;;12.43;5.60;;;;;;;15.15;72.37;100326.70;125736;1086;104366;-81
2023/04/24 07:10:08;;;;;;;9.20;4.70;;;;;;;15.31;72.17;100328.67;125532;1086;104300;-83
2023/04/24 07:12:37;;;;;;;8.70;4.83;;;;;;;15.44;71.11;100329.72;125555;1085;104326;-83
2023/04/24 07:15:09;;;;;;;11.50;5.00;;;;;;;15.56;69.87;100324.59;125662;1086;104231;-84
2023/04/24 07:17:38;;;;;;;11.67;5.47;;;;;;;15.70;70.34;100323.88;125532;1086;104229;-84
2023/04/24 07:20:09;;;;;;;10.20;5.23;;;;;;;15.86;69.42;100322.33;126503;1086;104184;-83
2023/04/24 07:22:38;;;;;;;10.17;4.73;;;;;;;15.96;69.08;100327.73;125840;1086;104331;-85
2023/04/24 07:25:08;;;;;;;11.00;5.17;;;;;;;16.07;67.76;100329.63;126171;1085;104354;-85
2023/04/24 07:27:37;;;;;;;9.73;4.87;;;;;;;16.16;69.36;100327.95;125573;1086;104347;-82
2023/04/24 07:30:08;;;;;;;9.97;4.90;;;;;;;16.28;69.13;100324.55;125487;1086;104228;-80
2023/04/24 07:32:36;;;;;;;10.37;4.63;;;;;;;16.47;68.20;100328.25;125440;1086;104287;-79
2023/04/24 07:35:06;;;;;;;11.15;5.40;;;;;;;16.70;67.26;100322.23;125509;1085;117803;-82
2023/04/24 07:37:35;;;;;;;11.77;5.27;;;;;;;16.83;67.55;100315.30;125513;1086;104223;-85
2023/04/24 07:40:04;;;;;;;12.90;5.57;;;;;;;16.93;66.92;100319.80;125714;1086;104156;-83
2023/04/24 07:42:34;;;;;;;12.03;5.10;;;;;;;17.08;64.94;100324.33;125520;1086;104338;-83
2023/04/24 07:45:09;;;;;;;9.60;4.92;;;;;;;17.18;66.05;100320.83;126079;1086;104230;-84
2023/04/24 07:47:39;;;;;;;10.33;4.93;;;;;;;17.32;65.28;100314.73;126721;1086;102444;-83
2023/04/24 07:50:08;;;;;;;8.50;4.60;;;;;;;17.45;65.92;100311.23;125580;1086;104328;-82
2023/04/24 07:52:36;;;;;;;8.80;4.90;;;;;;;17.54;65.08;100319.23;125584;1086;104210;-81
2023/04/24 07:55:06;;;;;;;8.10;4.90;;;;;;;17.55;64.68;100321.02;125427;1086;104274;-80
2023/04/24 07:57:35;;;;;;;9.23;4.93;;;;;;;17.59;64.96;100319.26;125540;1089;104284;-81
2023/04/24 08:00:06;;;;;;;11.77;4.73;;;;;;;17.66;64.94;100317.54;125511;1086;104334;-80
2023/04/24 08:02:39;;;;;;;13.60;4.90;;;;;;;17.76;61.88;100316.67;125283;1086;104322;-79
2023/04/24 08:05:09;;;;;;;8.83;4.47;;;;;;;17.91;59.80;100313.22;125464;1086;104375;-83
2023/04/24 08:07:38;;;;;;;11.47;5.00;;;;;;;18.06;60.70;100315.01;125859;1089;104254;-80
2023/04/24 08:10:09;;;;;;;7.97;4.60;;;;;;;18.08;61.26;100305.30;125784;1086;104361;-81
2023/04/24 08:12:38;;;;;;;8.80;4.70;;;;;;;18.14;61.20;100307.97;125543;1086;104290;-81
2023/04/24 08:15:09;;;;;;;7.83;4.47;;;;;;;18.13;60.80;100306.19;125576;1086;104411;-80
2023/04/24 08:17:37;;;;;;;7.47;4.10;;;;;;;18.12;60.55;100304.41;125801;1086;104181;-80
2023/04/24 08:20:13;;;;;;;8.33;4.23;;;;;;;18.19;60.34;100300.02;125427;1086;104196;-80
2023/04/24 08:22:42;;;;;;;8.20;4.50;;;;;;;18.22;58.81;100292.92;125575;1086;104155;-78
2023/04/24 08:25:11;;;;;;;8.03;4.20;;;;;;;18.34;58.16;100297.38;125707;1086;104453;-80
2023/04/24 08:27:39;;;;;;;7.70;4.20;;;;;;;18.46;59.17;100291.16;126282;1086;104356;-80
2023/04/24 08:30:09;;;;;;;8.27;4.20;;;;;;;18.66;57.88;100285.84;125964;1086;104244;-79
2023/04/24 08:32:38;;;;;;;8.00;4.53;;;;;;;18.80;56.17;100288.48;125666;1086;104203;-82
2023/04/24 08:35:09;;;;;;;6.90;4.13;;;;;;;18.85;56.53;100284.98;125738;1086;104232;-82
2023/04/24 08:37:37;;;;;;;7.27;4.10;;;;;;;18.90;55.27;100279.66;125806;1086;104484;-81
2023/04/24 08:40:13;;;;;;;10.60;4.20;;;;;;;18.94;55.60;100272.55;125531;1086;104420;-81
2023/04/24 08:42:44;;;;;;;9.10;4.47;;;;;;;19.01;55.19;100269.87;125815;1086;104363;-80
2023/04/24 08:45:13;;;;;;;6.73;4.03;;;;;;;19.07;55.65;100276.92;125754;1086;104670;-82
2023/04/24 08:47:42;;;;;;;10.25;4.05;;;;;;;19.11;55.37;100272.50;125575;1086;104299;-81
2023/04/24 08:50:12;;;;;;;6.63;3.87;;;;;;;19.12;54.67;100272.50;125606;1086;104430;-81
2023/04/24 08:52:42;;;;;;;11.10;4.57;;;;;;;19.23;53.98;100267.15;125751;1089;104252;-80
2023/04/24 08:55:10;;;;;;;7.43;4.00;;;;;;;19.27;53.89;100266.23;126206;1086;104270;-79
2023/04/24 08:57:40;;;;;;;8.17;4.40;;;;;;;19.19;52.49;100258.27;125689;1086;104344;-83
2023/04/24 09:00:11;;;;;;;7.85;4.20;;;;;;;19.14;53.79;100262.73;125932;1086;104242;-80
2023/04/24 09:02:43;;;;;;;10.87;4.17;;;;;;;19.04;53.89;100267.20;125868;1089;104312;-80
2023/04/24 09:05:13;;;;;;;10.33;4.20;;;;;;;19.01;53.12;100261.89;125793;1086;104356;-82
2023/04/24 09:07:45;;;;;;;7.23;4.50;;;;;;;19.16;51.97;100260.06;126163;1086;104181;-83
2023/04/24 09:10:14;;;;;;;6.57;3.93;;;;;;;19.20;51.77;100256.52;125469;1089;104283;-83
2023/04/24 09:12:45;;;;;;;8.97;4.53;;;;;;;19.21;50.94;100248.53;125981;1089;104299;-79
2023/04/24 09:15:14;;;;;;;7.40;4.20;;;;;;;19.31;50.79;100243.18;125828;1086;104366;-78
2023/04/24 09:17:43;;;;;;;7.60;3.83;;;;;;;19.45;52.06;100240.46;125777;1086;104462;-81
2023/04/24 09:20:14;;;;;;;7.83;4.03;;;;;;;19.62;51.04;100241.25;125807;1086;104331;-80
2023/04/24 09:22:43;;;;;;;6.83;4.20;;;;;;;19.61;49.48;100251.91;125449;1086;104300;-83
2023/04/24 09:25:12;;;;;;;8.27;4.10;;;;;;;19.53;48.53;100236.84;125721;1086;104286;-80
2023/04/24 09:27:45;;;;;;;8.70;4.37;;;;;;;19.63;48.55;100247.45;125716;1090;104296;-81
2023/04/24 09:30:21;;;;;;;7.90;4.47;;;;;;;19.81;49.57;100238.52;125777;1086;104215;-80
2023/04/24 09:32:49;;;;;;;7.93;3.90;;;;;;;19.89;49.83;100234.02;125562;1086;104292;-79
2023/04/24 09:35:18;;;;;;;7.33;4.37;;;;;;;19.91;49.15;100237.54;125663;1086;104279;-77
2023/04/24 09:37:48;;;;;;;8.80;4.00;;;;;;;20.00;49.39;100234.81;125626;1089;104247;-79
2023/04/24 09:40:18;;;;;;;6.45;3.85;;;;;;;20.17;47.93;100225.83;125573;1086;104315;-79
2023/04/24 09:42:52;;;;;;;9.57;4.47;;;;;;;20.40;48.98;100220.30;125856;1086;104212;-81
2023/04/24 09:45:20;;;;;;;;;;;;;;;20.47;43.45;100212.23;125834;1086;105626;-81
2023/04/24 09:47:53;;;;;;;8.00;4.00;;;;;;;20.66;46.86;100217.39;125583;1086;104261;-81
2023/04/24 09:50:22;;;;;;;7.58;3.60;;;;;;;20.74;46.79;100218.22;125877;1086;104784;-80
2023/04/24 09:53:01;;;;;;;8.33;4.00;;;;;;;20.70;45.63;100216.47;125711;1086;104280;-84
2023/04/24 09:55:30;;;;;;;9.37;4.13;;;;;;;20.71;45.02;100217.34;125530;1086;104360;-81
2023/04/24 09:58:00;;;;;;;6.47;3.90;;;;;;;20.72;45.39;100211.99;125999;1086;104235;-84
2023/04/24 10:00:30;;;;;;;8.33;4.23;;;;;;;20.62;44.92;100210.31;126423;1086;104225;-83
2023/04/24 10:03:00;;;;;;;8.27;3.90;;;;;;;20.48;43.68;100211.31;125857;1086;104274;-83
2023/04/24 10:05:31;;;;;;;8.23;4.13;;;;;;;20.35;44.12;100204.36;125729;1086;104332;-83
2023/04/24 10:08:03;;;;;;;8.45;3.90;;;;;;;20.24;43.42;100201.78;125801;1086;104213;-81
2023/04/24 10:10:34;;;;;;;9.00;3.90;;;;;;;20.16;45.07;100200.07;125797;1088;104274;-85
2023/04/24 10:13:03;;;;;;;6.67;4.13;;;;;;;20.00;43.90;100199.32;126622;1086;104231;-82
2023/04/24 10:15:33;;;;;;;6.13;4.17;;;;;;;19.94;43.64;100194.91;125669;1086;104219;-81
2023/04/24 10:18:02;;;;;;;7.10;4.60;;;;;;;19.97;43.11;100194.02;125531;1086;104281;-81
2023/04/24 10:20:31;;;;;;;8.50;4.03;;;;;;;20.06;43.73;100189.49;125411;1086;104376;-79
2023/04/24 10:23:00;;;;;;;7.63;4.10;;;;;;;20.28;42.90;100190.19;125452;1086;104312;-80
2023/04/24 10:25:30;;;;;;;5.73;3.97;;;;;;;20.42;42.20;100190.05;125542;1086;104283;-79
2023/04/24 10:28:00;;;;;;;8.30;4.40;;;;;;;20.56;41.54;100192.59;125471;1086;104232;-83
2023/04/24 10:30:30;;;;;;;6.63;3.67;;;;;;;20.63;42.44;100180.06;125645;1086;104414;-83
2023/04/24 10:33:00;;;;;;;6.97;4.20;;;;;;;20.70;41.75;100180.94;126297;1086;104395;-81
2023/04/24 10:35:33;;;;;;;6.13;3.87;;;;;;;20.71;42.28;100180.02;125545;1086;104235;-79
2023/04/24 10:38:08;;;;;;;8.03;4.45;;;;;;;20.69;42.72;100182.70;125886;1086;104397;-79
2023/04/24 10:40:37;;;;;;;8.03;4.20;;;;;;;20.63;43.01;100177.40;125696;1086;104934;-79
2023/04/24 10:43:09;;;;;;;5.90;3.90;;;;;;;20.63;41.76;100172.98;126121;1086;104270;-82
2023/04/24 10:45:38;;;;;;;9.23;4.47;;;;;;;20.58;41.72;100168.58;125993;1089;104212;-84
2023/04/24 10:48:13;;;;;;;8.07;4.33;;;;;;;20.55;41.72;100176.61;125973;1086;104328;-83
2023/04/24 10:50:46;;;;;;;7.40;4.07;;;;;;;20.51;42.19;100170.44;126343;1086;104350;-82
2023/04/24 10:53:17;;;;;;;6.37;3.62;;;;;;;20.46;41.78;100166.95;126415;1087;104322;-85
2023/04/24 10:55:48;;;;;;;6.60;3.93;;;;;;;20.55;41.68;100165.95;126252;1086;104401;-79
2023/04/24 10:58:21;;;;;;;7.27;4.23;;;;;;;20.64;41.27;100168.52;125509;1086;104363;-80
2023/04/24 11:00:58;;;;;;;9.13;4.00;;;;;;;20.73;41.15;100171.11;125711;1086;104235;-80
2023/04/24 11:03:29;;;;;;;6.00;3.70;;;;;;;20.85;41.02;100162.11;125602;1086;104290;-80
2023/04/24 11:06:00;;;;;;;7.03;3.90;;;;;;;20.95;41.88;100155.73;125449;1086;104152;-80
2023/04/24 11:08:31;;;;;;;8.00;4.15;;;;;;;20.99;41.51;100161.94;125653;1086;104284;-83
2023/04/24 11:11:02;;;;;;;7.43;4.30;;;;;;;20.96;41.39;100162.84;125533;1089;104315;-84
2023/04/24 11:14:06;;;;;;;9.53;4.53;;;;;;;20.87;41.59;100167.42;126144;1086;104359;-78
2023/04/24 11:16:37;;;;;;;6.07;3.80;;;;;;;20.74;41.43;100170.23;125871;1086;104308;-82
2023/04/24 11:19:08;;;;;;;8.83;3.90;;;;;;;20.57;40.66;100158.80;125692;1090;104257;-83